LROP/OTP METAR and TAF weather

Enter ICAO airport designator
Station Type Date Time Source
LROP METAR 2018/12/15 23:30 UTC NOAA

LROP 152330Z 06018KT 9999 -RA OVC005 01/00 Q1018 R08R/29//95 R08L/29//95 NOSIG


Station Type Date Time Source
LROP Decoded METAR 2018/12/15 23:30 UTC NOAA

Bucuresti Otopeni, Romania (LROP) 44-33N 026-06E 95M
Dec 15, 2018 - 06:30 PM EST / 2018.12.15 2330 UTC
Wind: from the ENE (060 degrees) at 21 MPH (18 KT):0
Visibility: greater than 7 mile(s):0
Sky conditions: overcast
Weather: light rain
Temperature: 33 F (1 C)
Windchill: 21 F (-6 C):1
Dew Point: 32 F (0 C)
Relative Humidity: 93%
Pressure (altimeter): 30.06 in. Hg (1018 hPa)
ob: LROP 152330Z 06018KT 9999 -RA OVC005 01/00 Q1018 R08R/29//95 R08L/29//95 NOSIG
cycle: 23

Station Type Date Time Source
LROP TAF 2018/12/15 18:33 UTC NOAA

TAF LROP 151700Z 1518/1618 06020KT 3000 -FZDZ OVC005
BECMG 1520/1522 -RADZ
BECMG 1607/1609 08010KT
TEMPO 1609/1615 1500 RADZ OVC002
BECMG 1612/1614 22008KT


Example: see airport list